Time;durP1;ratioP1;P1;durP2;ratioP2;P2;SDS_P1;SDS_P2;PMS_P1;PMS_P2;Temp;Humidity;BMP_temperature;BMP_pressure;BME280_temperature;BME280_humidity;BME280_pressure;Samples;Min_cycle;Max_cycle;Signal;HPM_P1;HPM_P2
2022/01/29 00:00:02;;;;;;;;;;;1.20;71.90;;;;;;5073463;28;19905;-21
2022/01/29 00:02:28;;;;;;;;;;;1.20;72.20;;;;;;5073781;28;19912;-21
2022/01/29 00:04:54;;;;;;;;;;;1.20;71.60;;;;;;5072089;28;19908;-21
2022/01/29 00:07:20;;;;;;;;;;;1.10;71.40;;;;;;5073352;28;20383;-21
2022/01/29 00:09:47;;;;;;;;;;;1.20;70.90;;;;;;5073296;28;19950;-21
2022/01/29 00:12:13;;;;;;;;;;;1.10;71.10;;;;;;5073092;28;19912;-22
2022/01/29 00:14:39;;;;;;;;;;;1.10;70.70;;;;;;5073255;28;19911;-21
2022/01/29 00:17:05;;;;;;;;;;;1.10;71.50;;;;;;5073540;28;19904;-21
2022/01/29 00:19:31;;;;;;;;;;;1.00;71.00;;;;;;5072921;28;19939;-21
2022/01/29 00:21:58;;;;;;;;;;;1.00;70.50;;;;;;5073045;28;20004;-21
2022/01/29 00:24:24;;;;;;;;;;;0.90;69.90;;;;;;5072966;28;20376;-20
2022/01/29 00:26:51;;;;;;;;;;;0.90;71.60;;;;;;5073155;28;19931;-21
2022/01/29 00:29:20;;;;;;;;;;;0.90;73.50;;;;;;5073601;28;19954;-21
2022/01/29 00:31:46;;;;;;;;;;;0.80;73.30;;;;;;5073061;28;19952;-21
2022/01/29 00:34:12;;;;;;;;;;;0.80;72.70;;;;;;5072902;28;19958;-21
2022/01/29 00:36:38;;;;;;;;;;;0.70;72.00;;;;;;5073003;28;19904;-21
2022/01/29 00:39:04;;;;;;;;;;;0.70;71.70;;;;;;5073354;28;19969;-20
2022/01/29 00:41:29;;;;;;;;;;;0.70;71.30;;;;;;5073333;28;20420;-20
2022/01/29 00:43:55;;;;;;;;;;;0.70;72.00;;;;;;5073138;28;19916;-20
2022/01/29 00:46:21;;;;;;;;;;;0.70;72.30;;;;;;5072833;28;19911;-20
2022/01/29 00:48:47;;;;;;;;;;;0.70;71.90;;;;;;5075632;28;20275;-20
2022/01/29 00:51:13;;;;;;;;;;;0.70;71.80;;;;;;5077029;28;19905;-20
2022/01/29 00:53:39;;;;;;;;;;;0.70;71.50;;;;;;5076930;28;20348;-20
2022/01/29 00:56:06;;;;;;;;;;;0.70;71.10;;;;;;5076580;28;19911;-20
2022/01/29 00:58:33;;;;;;;;;;;0.70;71.20;;;;;;5076632;28;19910;-20
2022/01/29 01:00:59;;;;;;;;;;;0.70;73.20;;;;;;5076487;28;19904;-20
2022/01/29 01:03:25;;;;;;;;;;;0.70;75.50;;;;;;5076448;28;19913;-20
2022/01/29 01:05:50;;;;;;;;;;;0.60;74.10;;;;;;5076439;28;19905;-21
2022/01/29 01:08:16;;;;;;;;;;;0.60;73.10;;;;;;5076121;28;19911;-21
2022/01/29 01:10:42;;;;;;;;;;;0.60;73.10;;;;;;5076242;28;19908;-20
2022/01/29 01:13:08;;;;;;;;;;;0.60;72.70;;;;;;5076596;28;19905;-20
2022/01/29 01:15:34;;;;;;;;;;;0.60;72.20;;;;;;5076443;28;19909;-20
2022/01/29 01:18:00;;;;;;;;;;;0.50;71.80;;;;;;5076172;28;19905;-21
2022/01/29 01:20:26;;;;;;;;;;;0.50;71.80;;;;;;5075796;28;19923;-21
2022/01/29 01:22:52;;;;;;;;;;;0.40;71.30;;;;;;5075943;28;19937;-20
2022/01/29 01:25:18;;;;;;;;;;;0.40;71.10;;;;;;5076368;28;19905;-21
2022/01/29 01:27:44;;;;;;;;;;;0.40;71.00;;;;;;5076278;28;19931;-20
2022/01/29 01:30:10;;;;;;;;;;;0.30;71.00;;;;;;5076409;28;19904;-20
2022/01/29 01:32:36;;;;;;;;;;;0.20;70.80;;;;;;5075674;28;20363;-20
2022/01/29 01:35:17;;;;;;;;;;;0.20;70.60;;;;;;5075794;28;19910;-20
2022/01/29 01:37:54;;;;;;;;;;;0.20;70.50;;;;;;5076191;28;19919;-20
2022/01/29 01:40:22;;;;;;;;;;;0.10;70.30;;;;;;5075908;28;19926;-20
2022/01/29 01:42:48;;;;;;;;;;;0.10;70.00;;;;;;5075651;28;19970;-20
2022/01/29 01:45:14;;;;;;;;;;;0.10;70.20;;;;;;5074434;28;19947;-20
2022/01/29 01:47:40;;;;;;;;;;;0.10;70.00;;;;;;5074422;28;20379;-20
2022/01/29 01:50:07;;;;;;;;;;;0.10;70.10;;;;;;5075579;28;19904;-20
2022/01/29 01:52:32;;;;;;;;;;;0.10;69.90;;;;;;5076302;28;19916;-20
2022/01/29 01:54:58;;;;;;;;;;;0.10;70.30;;;;;;5075565;28;19911;-20
2022/01/29 01:57:24;;;;;;;;;;;0.10;70.80;;;;;;5075733;28;19915;-20
2022/01/29 01:59:50;;;;;;;;;;;0.00;70.50;;;;;;5074871;28;20015;-20
2022/01/29 02:02:16;;;;;;;;;;;0.00;70.60;;;;;;5075072;28;19912;-20
2022/01/29 02:04:42;;;;;;;;;;;0.00;70.50;;;;;;5075240;28;20429;-20
2022/01/29 02:07:08;;;;;;;;;;;0.00;71.50;;;;;;5075284;28;19994;-20
2022/01/29 02:09:34;;;;;;;;;;;0.00;71.50;;;;;;5075539;28;19954;-20
2022/01/29 02:12:04;;;;;;;;;;;0.00;71.10;;;;;;5075455;28;20264;-20
2022/01/29 02:14:32;;;;;;;;;;;-0.10;71.10;;;;;;5074965;28;19957;-20
2022/01/29 02:16:59;;;;;;;;;;;-0.10;71.50;;;;;;5075378;28;19904;-20
2022/01/29 02:19:26;;;;;;;;;;;-0.10;71.30;;;;;;5074685;28;20441;-20
2022/01/29 02:21:52;;;;;;;;;;;-0.20;70.90;;;;;;5074992;28;19905;-20
2022/01/29 02:24:18;;;;;;;;;;;-0.20;70.90;;;;;;5074625;28;19912;-20
2022/01/29 02:26:44;;;;;;;;;;;-0.30;72.40;;;;;;5074857;28;19908;-20
2022/01/29 02:29:10;;;;;;;;;;;-0.30;71.80;;;;;;5075111;28;19935;-20
2022/01/29 02:31:44;;;;;;;;;;;-0.40;71.40;;;;;;5074973;28;20310;-20
2022/01/29 02:34:09;;;;;;;;;;;-0.40;71.70;;;;;;5073390;28;20368;-21
2022/01/29 02:36:35;;;;;;;;;;;-0.40;72.50;;;;;;5074745;28;19905;-20
2022/01/29 02:39:01;;;;;;;;;;;-0.40;72.60;;;;;;5074899;28;20010;-20
2022/01/29 02:41:28;;;;;;;;;;;-0.40;71.60;;;;;;5074743;28;19904;-20
2022/01/29 02:43:59;;;;;;;;;;;-0.40;71.90;;;;;;5074729;28;19916;-20
2022/01/29 02:46:40;;;;;;;;;;;-0.40;71.30;;;;;;5074647;28;19968;-21
2022/01/29 02:49:06;;;;;;;;;;;-0.40;71.00;;;;;;5074332;28;19904;-20
2022/01/29 02:51:32;;;;;;;;;;;-0.30;71.00;;;;;;5074394;28;19905;-20
2022/01/29 02:53:57;;;;;;;;;;;-0.40;72.90;;;;;;5073454;28;19904;-20
2022/01/29 02:56:23;;;;;;;;;;;-0.40;72.60;;;;;;5074168;28;20292;-20
2022/01/29 02:58:49;;;;;;;;;;;-0.40;72.80;;;;;;5073583;28;20272;-20
2022/01/29 03:01:15;;;;;;;;;;;-0.40;72.60;;;;;;5074189;28;19997;-20
2022/01/29 03:03:40;;;;;;;;;;;-0.40;72.50;;;;;;5074036;28;20001;-20
2022/01/29 03:06:10;;;;;;;;;;;-0.40;72.60;;;;;;5074119;28;20042;-20
2022/01/29 03:08:37;;;;;;;;;;;-0.50;71.90;;;;;;5073821;28;19912;-20
2022/01/29 03:11:03;;;;;;;;;;;-0.50;70.50;;;;;;5073889;28;19904;-20
2022/01/29 03:13:29;;;;;;;;;;;-0.50;70.90;;;;;;5074042;28;19908;-20
2022/01/29 03:15:54;;;;;;;;;;;-0.50;71.70;;;;;;5074254;28;19950;-20
2022/01/29 03:18:20;;;;;;;;;;;-0.60;71.90;;;;;;5074581;28;20374;-21
2022/01/29 03:20:45;;;;;;;;;;;-0.60;72.70;;;;;;5073521;28;19961;-20
2022/01/29 03:23:13;;;;;;;;;;;-0.60;71.70;;;;;;5073713;28;19919;-20
2022/01/29 03:25:39;;;;;;;;;;;-0.60;71.90;;;;;;5073820;28;19954;-20
2022/01/29 03:28:04;;;;;;;;;;;-0.70;73.90;;;;;;5074044;28;19912;-20
2022/01/29 03:30:30;;;;;;;;;;;-0.70;74.00;;;;;;5073571;28;19908;-20
2022/01/29 03:32:56;;;;;;;;;;;-0.80;73.20;;;;;;5073956;28;19908;-20
2022/01/29 03:35:22;;;;;;;;;;;-0.80;72.80;;;;;;5073839;28;19958;-20
2022/01/29 03:37:47;;;;;;;;;;;-0.80;72.90;;;;;;5073962;28;19904;-20
2022/01/29 03:40:13;;;;;;;;;;;-0.80;73.00;;;;;;5073495;28;19908;-20
2022/01/29 03:42:58;;;;;;;;;;;-0.80;75.00;;;;;;5073860;28;20362;-20
2022/01/29 03:45:24;;;;;;;;;;;-0.70;74.40;;;;;;5073619;28;20414;-20
2022/01/29 03:47:50;;;;;;;;;;;-0.70;74.30;;;;;;5073739;28;19904;-20
2022/01/29 03:50:16;;;;;;;;;;;-0.70;74.00;;;;;;5073334;28;19904;-20
2022/01/29 03:52:41;;;;;;;;;;;-0.70;74.00;;;;;;5073398;28;19911;-20
2022/01/29 03:55:07;;;;;;;;;;;-0.70;73.50;;;;;;5073491;28;19905;-20
2022/01/29 03:57:33;;;;;;;;;;;-0.70;73.40;;;;;;5072230;28;19913;-20
2022/01/29 03:59:58;;;;;;;;;;;-0.70;73.20;;;;;;5073370;28;19905;-20
2022/01/29 04:02:24;;;;;;;;;;;-0.70;72.80;;;;;;5073337;28;19962;-20
2022/01/29 04:04:49;;;;;;;;;;;-0.70;72.90;;;;;;5073296;28;19904;-20
2022/01/29 04:07:15;;;;;;;;;;;-0.70;72.70;;;;;;5073298;28;19904;-20
2022/01/29 04:09:47;;;;;;;;;;;-0.70;73.20;;;;;;5073651;28;19910;-20
2022/01/29 04:12:14;;;;;;;;;;;-0.80;72.80;;;;;;5073258;28;20352;-21
2022/01/29 04:14:40;;;;;;;;;;;-0.80;73.00;;;;;;5073642;28;19904;-20
2022/01/29 04:17:07;;;;;;;;;;;-0.80;73.10;;;;;;5073311;28;19954;-19
2022/01/29 04:19:33;;;;;;;;;;;-0.90;73.20;;;;;;5073163;28;19924;-20
2022/01/29 04:21:59;;;;;;;;;;;-0.90;72.70;;;;;;5073189;28;20367;-20
2022/01/29 04:24:24;;;;;;;;;;;-0.90;72.40;;;;;;5075373;28;19952;-19
2022/01/29 04:26:50;;;;;;;;;;;-0.90;72.20;;;;;;5077257;28;20011;-20
2022/01/29 04:29:16;;;;;;;;;;;-1.00;72.20;;;;;;5075912;28;19911;-20
2022/01/29 04:32:08;;;;;;;;;;;-1.00;71.80;;;;;;5077101;28;19911;-20
2022/01/29 04:34:31;;;;;;;;;;;-1.00;71.70;;;;;;5076652;28;19904;-19
2022/01/29 04:36:57;;;;;;;;;;;-1.00;71.50;;;;;;5076983;28;19904;-20
2022/01/29 04:39:22;;;;;;;;;;;-1.00;71.40;;;;;;5076840;28;20034;-20
2022/01/29 04:41:49;;;;;;;;;;;-1.00;71.40;;;;;;5076868;28;19958;-20
2022/01/29 04:44:15;;;;;;;;;;;-1.00;71.10;;;;;;5076608;28;19916;-20
2022/01/29 04:46:40;;;;;;;;;;;-1.00;71.10;;;;;;5076763;28;19911;-20
2022/01/29 04:49:06;;;;;;;;;;;-1.00;70.90;;;;;;5076564;28;19999;-19
2022/01/29 04:51:32;;;;;;;;;;;-1.00;71.00;;;;;;5075435;28;19954;-20
2022/01/29 04:53:57;;;;;;;;;;;-1.00;71.00;;;;;;5076941;28;19905;-20
2022/01/29 04:56:23;;;;;;;;;;;-1.00;71.30;;;;;;5076338;28;20014;-20
2022/01/29 04:58:48;;;;;;;;;;;-1.00;71.10;;;;;;5076859;28;19908;-19
2022/01/29 05:01:14;;;;;;;;;;;-1.00;73.00;;;;;;5076501;28;19915;-20
2022/01/29 05:03:40;;;;;;;;;;;-1.00;72.10;;;;;;5076361;28;20003;-20
2022/01/29 05:06:09;;;;;;;;;;;-1.00;71.80;;;;;;5076520;28;20376;-20
2022/01/29 05:08:36;;;;;;;;;;;-1.00;72.20;;;;;;5076479;28;19950;-19
2022/01/29 05:11:02;;;;;;;;;;;-1.10;71.80;;;;;;5076283;28;19912;-20
2022/01/29 05:13:29;;;;;;;;;;;-1.10;71.20;;;;;;5075357;28;19927;-20
2022/01/29 05:26:51;;;;;;;;;;;-1.20;71.80;;;;;;5076259;28;19988;-20
2022/01/29 05:29:18;;;;;;;;;;;-1.30;73.60;;;;;;5076072;28;19908;-20
2022/01/29 05:31:44;;;;;;;;;;;-1.30;73.70;;;;;;5076241;28;19912;-20
2022/01/29 05:34:10;;;;;;;;;;;-1.30;72.80;;;;;;5074928;28;19905;-20
2022/01/29 05:36:35;;;;;;;;;;;-1.30;72.60;;;;;;5075607;28;20346;-20
2022/01/29 05:39:03;;;;;;;;;;;-1.30;72.60;;;;;;5075893;28;19994;-20
2022/01/29 05:41:28;;;;;;;;;;;-1.30;72.10;;;;;;5075986;28;19904;-19
2022/01/29 05:43:54;;;;;;;;;;;-1.30;71.80;;;;;;5075638;28;19923;-20
2022/01/29 05:46:21;;;;;;;;;;;-1.30;71.60;;;;;;5075815;28;19904;-20
2022/01/29 05:48:47;;;;;;;;;;;-1.20;72.10;;;;;;5075810;28;19908;-19
2022/01/29 05:51:12;;;;;;;;;;;-1.20;72.90;;;;;;5076257;28;19908;-20
2022/01/29 05:53:38;;;;;;;;;;;-1.20;73.60;;;;;;5075880;28;19958;-19
2022/01/29 05:56:05;;;;;;;;;;;-1.20;73.90;;;;;;5075854;28;19914;-19
2022/01/29 05:58:30;;;;;;;;;;;-1.20;74.10;;;;;;5075610;28;19995;-20
2022/01/29 06:00:56;;;;;;;;;;;-1.30;73.70;;;;;;5075449;28;20383;-20
2022/01/29 06:03:22;;;;;;;;;;;-1.30;72.90;;;;;;5075279;28;19912;-20
2022/01/29 06:05:48;;;;;;;;;;;-1.30;72.40;;;;;;5075559;28;20360;-20
2022/01/29 06:08:13;;;;;;;;;;;-1.30;71.90;;;;;;5075062;28;19912;-21
2022/01/29 06:10:39;;;;;;;;;;;-1.30;71.90;;;;;;5075573;28;19905;-20
2022/01/29 06:13:05;;;;;;;;;;;-1.30;71.70;;;;;;5075504;28;20337;-20
2022/01/29 06:15:32;;;;;;;;;;;-1.40;71.40;;;;;;5075466;28;20268;-20
2022/01/29 06:17:58;;;;;;;;;;;-1.40;71.20;;;;;;5075416;28;19958;-20
2022/01/29 06:20:26;;;;;;;;;;;-1.50;71.10;;;;;;5074648;28;19921;-20
2022/01/29 06:22:52;;;;;;;;;;;-1.50;71.00;;;;;;5074868;28;20265;-19
2022/01/29 06:25:18;;;;;;;;;;;-1.50;71.00;;;;;;5075211;28;20013;-20
2022/01/29 06:27:44;;;;;;;;;;;-1.60;72.50;;;;;;5074818;28;19904;-20
2022/01/29 06:30:10;;;;;;;;;;;-1.60;72.00;;;;;;5074797;28;19904;-19
2022/01/29 06:32:36;;;;;;;;;;;-1.60;72.40;;;;;;5074609;28;19947;-20
2022/01/29 06:35:02;;;;;;;;;;;-1.70;72.20;;;;;;5074650;28;19949;-19
2022/01/29 06:37:28;;;;;;;;;;;-1.70;72.30;;;;;;5074977;28;19904;-19
2022/01/29 06:39:53;;;;;;;;;;;-1.70;72.60;;;;;;5074960;28;19904;-19
2022/01/29 06:42:19;;;;;;;;;;;-1.60;74.90;;;;;;5074629;28;20310;-20
2022/01/29 06:44:45;;;;;;;;;;;-1.70;74.30;;;;;;5075422;28;20021;-20
2022/01/29 06:47:11;;;;;;;;;;;-1.60;73.70;;;;;;5074046;28;19904;-20
2022/01/29 06:49:37;;;;;;;;;;;-1.60;73.00;;;;;;5074578;28;19931;-20
2022/01/29 06:52:02;;;;;;;;;;;-1.60;72.70;;;;;;5074338;28;19908;-20
2022/01/29 06:54:28;;;;;;;;;;;-1.50;72.40;;;;;;5074212;28;20007;-20
2022/01/29 06:56:54;;;;;;;;;;;-1.60;72.30;;;;;;5074578;28;20015;-19
2022/01/29 06:59:20;;;;;;;;;;;-1.50;72.30;;;;;;5074749;28;19954;-20
2022/01/29 07:01:46;;;;;;;;;;;-1.60;72.00;;;;;;5074204;28;19911;-20
2022/01/29 07:04:12;;;;;;;;;;;-1.60;71.80;;;;;;5074117;28;19912;-20
2022/01/29 07:06:38;;;;;;;;;;;-1.60;71.70;;;;;;5074429;28;20363;-19
2022/01/29 07:09:03;;;;;;;;;;;-1.60;71.40;;;;;;5074416;28;19904;-20
2022/01/29 07:11:29;;;;;;;;;;;-1.60;71.40;;;;;;5074234;28;19936;-20
2022/01/29 07:14:04;;;;;;;;;;;-1.60;71.30;;;;;;5073985;28;19912;-20
2022/01/29 07:16:31;;;;;;;;;;;-1.50;71.70;;;;;;5073799;28;19904;-20
2022/01/29 07:18:56;;;;;;;;;;;-1.50;73.00;;;;;;5074053;28;20318;-21
2022/01/29 07:21:22;;;;;;;;;;;-1.50;72.70;;;;;;5072655;28;19908;-20
2022/01/29 07:23:48;;;;;;;;;;;-1.50;72.10;;;;;;5074115;28;20280;-20
2022/01/29 07:26:15;;;;;;;;;;;-1.50;72.30;;;;;;5073943;28;20011;-20
2022/01/29 07:28:41;;;;;;;;;;;-1.40;72.20;;;;;;5074451;28;19962;-19
2022/01/29 07:31:07;;;;;;;;;;;-1.30;72.20;;;;;;5073824;28;19911;-19
2022/01/29 07:33:33;;;;;;;;;;;-1.20;72.20;;;;;;5073664;28;19904;-20
2022/01/29 07:35:59;;;;;;;;;;;-1.00;72.20;;;;;;5073648;28;19944;-20
2022/01/29 07:38:25;;;;;;;;;;;-0.90;71.90;;;;;;5073561;28;19915;-20
2022/01/29 07:40:51;;;;;;;;;;;-0.80;72.00;;;;;;5074281;28;19905;-20
2022/01/29 07:43:17;;;;;;;;;;;-0.60;71.50;;;;;;5073535;28;20017;-20
2022/01/29 07:45:43;;;;;;;;;;;-0.50;71.30;;;;;;5073517;28;19914;-20
2022/01/29 07:48:08;;;;;;;;;;;-0.30;70.60;;;;;;5074196;28;19904;-20
2022/01/29 07:50:34;;;;;;;;;;;-0.20;70.70;;;;;;5072257;28;19915;-20
2022/01/29 07:53:00;;;;;;;;;;;-0.10;70.90;;;;;;5072295;28;19911;-19
2022/01/29 07:55:27;;;;;;;;;;;0.00;71.20;;;;;;5073441;28;19912;-20
2022/01/29 07:57:52;;;;;;;;;;;0.00;71.40;;;;;;5072769;28;19908;-19
2022/01/29 08:00:18;;;;;;;;;;;0.20;71.00;;;;;;5073213;28;20030;-19
2022/01/29 08:02:44;;;;;;;;;;;0.30;70.60;;;;;;5073270;28;19908;-19
2022/01/29 08:05:10;;;;;;;;;;;0.40;70.40;;;;;;5073373;28;19912;-20
2022/01/29 08:07:38;;;;;;;;;;;0.50;71.90;;;;;;5073316;28;19916;-20
2022/01/29 08:10:05;;;;;;;;;;;0.60;72.80;;;;;;5073668;28;19948;-20
2022/01/29 08:12:30;;;;;;;;;;;0.80;72.70;;;;;;5073112;28;19911;-20
2022/01/29 08:14:56;;;;;;;;;;;0.90;72.40;;;;;;5073318;28;19999;-20
2022/01/29 08:17:23;;;;;;;;;;;1.00;72.50;;;;;;5073267;28;19990;-20
2022/01/29 08:19:49;;;;;;;;;;;1.20;72.70;;;;;;5072953;28;19916;-20
2022/01/29 08:22:16;;;;;;;;;;;1.30;73.10;;;;;;5073116;28;19943;-20
2022/01/29 08:24:42;;;;;;;;;;;1.50;72.30;;;;;;5073205;28;19943;-20
2022/01/29 08:27:08;;;;;;;;;;;1.70;71.90;;;;;;5071992;28;19904;-20
2022/01/29 08:29:34;;;;;;;;;;;1.90;69.80;;;;;;5073457;28;20332;-20
2022/01/29 08:32:00;;;;;;;;;;;2.00;70.30;;;;;;5073460;28;19905;-20
2022/01/29 08:34:27;;;;;;;;;;;2.20;69.30;;;;;;5072903;28;19911;-20
2022/01/29 08:36:53;;;;;;;;;;;2.40;69.50;;;;;;5073045;28;19904;-20
2022/01/29 08:39:20;;;;;;;;;;;2.50;69.30;;;;;;5073372;28;19904;-20
2022/01/29 08:41:46;;;;;;;;;;;2.70;69.80;;;;;;5073062;28;20348;-20
2022/01/29 08:44:12;;;;;;;;;;;2.90;68.50;;;;;;5073390;28;19908;-21
2022/01/29 08:46:37;;;;;;;;;;;3.00;68.30;;;;;;5073000;28;20436;-20
2022/01/29 08:49:03;;;;;;;;;;;3.10;67.30;;;;;;5073710;28;20046;-20
2022/01/29 08:51:29;;;;;;;;;;;3.30;68.40;;;;;;5073271;28;19913;-20
2022/01/29 08:53:55;;;;;;;;;;;3.50;68.30;;;;;;5072954;28;19926;-21
2022/01/29 08:56:21;;;;;;;;;;;3.70;68.40;;;;;;5071510;28;19905;-20
2022/01/29 08:58:46;;;;;;;;;;;3.80;68.00;;;;;;5072859;28;19950;-21
2022/01/29 09:01:13;;;;;;;;;;;4.00;67.60;;;;;;5073131;28;19918;-21
2022/01/29 09:03:39;;;;;;;;;;;4.20;67.00;;;;;;5072765;28;20003;-21
2022/01/29 09:06:05;;;;;;;;;;;4.40;66.80;;;;;;5071510;28;19943;-21
2022/01/29 09:08:31;;;;;;;;;;;4.50;65.60;;;;;;5073218;28;19942;-21
2022/01/29 09:10:57;;;;;;;;;;;4.70;65.60;;;;;;5075992;28;19905;-21
2022/01/29 09:13:24;;;;;;;;;;;4.90;65.30;;;;;;5076337;28;20277;-21
2022/01/29 09:15:50;;;;;;;;;;;5.20;65.10;;;;;;5076636;28;20359;-21
2022/01/29 09:18:16;;;;;;;;;;;5.40;64.20;;;;;;5076064;28;19950;-21
2022/01/29 09:20:42;;;;;;;;;;;5.60;65.20;;;;;;5074723;28;19912;-21
2022/01/29 09:23:10;;;;;;;;;;;5.90;63.80;;;;;;5076355;28;19958;-21
2022/01/29 09:25:37;;;;;;;;;;;6.20;62.30;;;;;;5076142;28;19904;-21
2022/01/29 09:28:07;;;;;;;;;;;6.40;61.00;;;;;;5076397;28;19927;-21
2022/01/29 09:30:33;;;;;;;;;;;6.70;60.80;;;;;;5075847;28;19908;-21
2022/01/29 09:32:59;;;;;;;;;;;6.90;60.20;;;;;;5075951;28;19904;-22
2022/01/29 09:35:25;;;;;;;;;;;7.20;60.00;;;;;;5076365;28;19915;-21
2022/01/29 09:37:51;;;;;;;;;;;7.40;59.50;;;;;;5075855;28;20276;-21
2022/01/29 09:40:17;;;;;;;;;;;7.70;57.00;;;;;;5076029;28;19904;-21
2022/01/29 09:42:49;;;;;;;;;;;7.90;56.20;;;;;;5075852;28;20257;-21
2022/01/29 09:45:16;;;;;;;;;;;8.20;53.70;;;;;;5076093;28;19931;-21
2022/01/29 09:47:43;;;;;;;;;;;8.50;54.50;;;;;;5075726;28;19904;-21
2022/01/29 09:50:10;;;;;;;;;;;8.70;54.10;;;;;;5075562;28;19904;-21
2022/01/29 09:52:36;;;;;;;;;;;8.90;54.30;;;;;;5075324;28;19904;-21
2022/01/29 09:55:01;;;;;;;;;;;9.20;54.20;;;;;;5075662;28;19908;-21
2022/01/29 09:57:27;;;;;;;;;;;9.40;54.30;;;;;;5074274;28;19910;-21
2022/01/29 09:59:53;;;;;;;;;;;9.60;53.00;;;;;;5075745;28;19908;-21
2022/01/29 10:02:19;;;;;;;;;;;9.90;50.70;;;;;;5076001;28;19905;-21
2022/01/29 10:04:46;;;;;;;;;;;10.10;52.40;;;;;;5075602;28;19930;-21
2022/01/29 10:07:25;;;;;;;;;;;10.30;52.60;;;;;;5075362;28;20383;-21
2022/01/29 10:09:51;;;;;;;;;;;10.50;52.50;;;;;;5075582;28;20268;-21
2022/01/29 10:12:23;;;;;;;;;;;10.70;51.70;;;;;;5075266;28;19965;-21
2022/01/29 10:14:50;;;;;;;;;;;10.90;51.60;;;;;;5075485;28;19904;-21
2022/01/29 10:17:35;;;;;;;;;;;11.10;50.50;;;;;;5075060;28;19905;-21
2022/01/29 10:20:27;;;;;;;;;;;11.30;52.10;;;;;;5074711;28;20347;-22
2022/01/29 10:23:00;;;;;;;;;;;11.60;50.60;;;;;;5072905;28;19912;-21
2022/01/29 10:25:28;;;;;;;;;;;11.90;49.80;;;;;;5075313;28;19927;-21
2022/01/29 10:28:07;;;;;;;;;;;12.10;50.90;;;;;;5074909;28;19904;-21
2022/01/29 10:30:35;;;;;;;;;;;12.30;50.50;;;;;;5074659;28;19950;-21
2022/01/29 10:33:19;;;;;;;;;;;12.50;50.60;;;;;;5075454;28;19904;-20
2022/01/29 10:35:49;;;;;;;;;;;12.70;51.50;;;;;;5074639;28;20360;-21
2022/01/29 10:38:26;;;;;;;;;;;12.90;50.80;;;;;;5075361;28;19908;-21
2022/01/29 10:41:10;;;;;;;;;;;13.20;49.50;;;;;;5074694;28;20353;-21
2022/01/29 10:43:53;;;;;;;;;;;13.40;47.10;;;;;;5075401;28;19913;-21
2022/01/29 10:46:26;;;;;;;;;;;13.60;48.50;;;;;;5074242;28;19991;-21
2022/01/29 10:48:51;;;;;;;;;;;13.90;49.90;;;;;;5074556;28;20353;-20
2022/01/29 10:51:17;;;;;;;;;;;14.10;51.10;;;;;;5074473;28;20391;-21
2022/01/29 10:53:43;;;;;;;;;;;14.40;51.00;;;;;;5074380;28;20016;-21
2022/01/29 10:56:09;;;;;;;;;;;14.50;46.70;;;;;;5074652;28;19911;-21
2022/01/29 10:58:41;;;;;;;;;;;14.80;48.70;;;;;;5074139;28;20433;-21
2022/01/29 11:01:14;;;;;;;;;;;14.90;47.80;;;;;;5074232;28;20368;-21
2022/01/29 11:03:40;;;;;;;;;;;15.20;43.10;;;;;;5074149;28;19916;-21
2022/01/29 11:06:10;;;;;;;;;;;15.30;44.30;;;;;;5074088;28;19904;-20
2022/01/29 11:08:38;;;;;;;;;;;15.50;48.10;;;;;;5074277;28;19908;-21
2022/01/29 11:11:03;;;;;;;;;;;15.70;48.80;;;;;;5074532;28;19947;-20
2022/01/29 11:13:30;;;;;;;;;;;15.90;40.80;;;;;;5074062;28;20356;-21
2022/01/29 11:15:57;;;;;;;;;;;16.20;40.60;;;;;;5074211;28;19908;-20
2022/01/29 11:18:24;;;;;;;;;;;16.40;41.10;;;;;;5074051;28;19942;-21
2022/01/29 11:20:51;;;;;;;;;;;16.60;39.80;;;;;;5073669;28;19923;-20
2022/01/29 11:23:17;;;;;;;;;;;16.80;38.10;;;;;;5073763;28;19912;-21
2022/01/29 11:25:44;;;;;;;;;;;16.90;38.20;;;;;;5074085;28;20323;-20
2022/01/29 11:28:12;;;;;;;;;;;17.00;43.80;;;;;;5073781;28;19905;-21
2022/01/29 11:30:38;;;;;;;;;;;17.10;37.80;;;;;;5074794;28;19908;-21
2022/01/29 11:33:03;;;;;;;;;;;17.10;38.20;;;;;;5074008;28;20409;-21
2022/01/29 11:35:31;;;;;;;;;;;17.20;38.20;;;;;;5073584;28;19905;-20
2022/01/29 11:37:59;;;;;;;;;;;17.30;37.90;;;;;;5073990;28;19904;-21
2022/01/29 11:40:25;;;;;;;;;;;17.40;37.90;;;;;;5073633;28;19912;-22
2022/01/29 11:43:09;;;;;;;;;;;17.60;35.70;;;;;;5073632;28;19916;-21
2022/01/29 11:45:43;;;;;;;;;;;17.80;37.00;;;;;;5073898;28;20348;-20
2022/01/29 11:48:29;;;;;;;;;;;18.10;36.70;;;;;;5073876;28;19904;-21
2022/01/29 11:50:56;;;;;;;;;;;18.40;37.30;;;;;;5073358;28;19955;-21
2022/01/29 11:53:22;;;;;;;;;;;18.70;35.90;;;;;;5073847;28;19987;-21
2022/01/29 11:55:50;;;;;;;;;;;19.00;36.60;;;;;;5073752;28;19904;-20
2022/01/29 11:58:17;;;;;;;;;;;19.40;36.80;;;;;;5073554;28;19999;-21
2022/01/29 12:00:51;;;;;;;;;;;19.60;32.40;;;;;;5073762;28;20390;-21
2022/01/29 12:03:43;;;;;;;;;;;19.90;32.40;;;;;;5073355;28;20368;-21
2022/01/29 12:09:08;;;;;;;;;;;20.40;31.10;;;;;;5074021;28;20340;-21
2022/01/29 12:11:38;;;;;;;;;;;20.60;34.30;;;;;;5073734;28;20013;-21
2022/01/29 12:14:13;;;;;;;;;;;20.90;33.20;;;;;;5073734;28;20012;-21
2022/01/29 12:16:56;;;;;;;;;;;21.20;31.00;;;;;;5072968;28;19905;-20
2022/01/29 12:19:34;;;;;;;;;;;21.40;31.60;;;;;;5073302;28;19917;-21
2022/01/29 12:22:01;;;;;;;;;;;21.60;32.90;;;;;;5073543;28;19912;-21
2022/01/29 12:24:26;;;;;;;;;;;21.80;30.70;;;;;;5073279;28;19916;-21
2022/01/29 12:26:56;;;;;;;;;;;22.00;30.90;;;;;;5073154;28;20291;-21
2022/01/29 12:29:22;;;;;;;;;;;22.20;31.10;;;;;;5073150;28;19912;-21
2022/01/29 12:31:52;;;;;;;;;;;22.40;31.20;;;;;;5073436;28;19904;-21
2022/01/29 12:34:21;;;;;;;;;;;22.60;31.80;;;;;;5073025;28;19905;-21
2022/01/29 12:36:47;;;;;;;;;;;22.90;30.50;;;;;;5073411;28;19916;-21
2022/01/29 12:39:21;;;;;;;;;;;23.10;31.10;;;;;;5073396;28;19904;-21
2022/01/29 12:44:34;;;;;;;;;;;23.50;31.40;;;;;;5074956;28;20333;-21
2022/01/29 12:47:00;;;;;;;;;;;23.70;28.20;;;;;;5076819;28;20423;-21
2022/01/29 12:49:25;;;;;;;;;;;23.80;30.20;;;;;;5076728;28;19966;-21
2022/01/29 12:51:53;;;;;;;;;;;23.60;28.70;;;;;;5076710;28;19905;-21
2022/01/29 12:54:19;;;;;;;;;;;23.40;28.80;;;;;;5076496;28;19911;-21
2022/01/29 12:56:44;;;;;;;;;;;23.20;31.10;;;;;;5076630;28;19904;-21
2022/01/29 12:59:11;;;;;;;;;;;23.10;29.40;;;;;;5076815;28;19905;-21
2022/01/29 13:01:38;;;;;;;;;;;23.20;29.70;;;;;;5076923;28;20015;-21
2022/01/29 13:04:08;;;;;;;;;;;23.30;30.70;;;;;;5076661;28;19920;-21
2022/01/29 13:06:34;;;;;;;;;;;23.40;28.10;;;;;;5076198;28;20353;-21
2022/01/29 13:09:15;;;;;;;;;;;23.50;29.70;;;;;;5076777;28;19911;-21
2022/01/29 13:11:41;;;;;;;;;;;23.60;27.40;;;;;;5076369;28;20280;-21
2022/01/29 13:14:14;;;;;;;;;;;23.80;28.30;;;;;;5076697;28;19999;-22
2022/01/29 13:16:40;;;;;;;;;;;23.70;26.80;;;;;;5076618;28;19912;-21
2022/01/29 13:19:05;;;;;;;;;;;23.70;27.10;;;;;;5076325;28;19908;-21
2022/01/29 13:21:33;;;;;;;;;;;23.80;29.50;;;;;;5076176;28;20307;-21
2022/01/29 13:24:23;;;;;;;;;;;23.90;27.50;;;;;;5076136;28;19958;-21
2022/01/29 13:26:58;;;;;;;;;;;23.90;28.80;;;;;;5076010;28;19928;-21
2022/01/29 13:29:32;;;;;;;;;;;23.90;27.20;;;;;;5076548;28;20371;-21
2022/01/29 13:31:58;;;;;;;;;;;23.90;27.40;;;;;;5076369;28;19953;-21
2022/01/29 13:34:28;;;;;;;;;;;23.80;26.80;;;;;;5076417;28;19908;-21
2022/01/29 13:36:53;;;;;;;;;;;23.70;27.80;;;;;;5076016;28;19953;-21
2022/01/29 13:39:19;;;;;;;;;;;23.50;26.80;;;;;;5076134;28;19998;-21
2022/01/29 13:41:45;;;;;;;;;;;23.20;28.10;;;;;;5076041;28;19913;-21
2022/01/29 13:44:11;;;;;;;;;;;22.90;30.50;;;;;;5075872;28;19919;-21
2022/01/29 13:46:38;;;;;;;;;;;22.80;30.60;;;;;;5076082;28;20288;-21
2022/01/29 13:49:06;;;;;;;;;;;22.80;29.10;;;;;;5075698;28;19912;-21
2022/01/29 13:51:34;;;;;;;;;;;22.70;30.50;;;;;;5075873;28;19911;-21
2022/01/29 13:54:01;;;;;;;;;;;22.70;30.80;;;;;;5075919;28;19904;-21
2022/01/29 13:56:28;;;;;;;;;;;22.90;29.70;;;;;;5074506;28;20366;-22
2022/01/29 13:59:02;;;;;;;;;;;23.10;29.20;;;;;;5075843;28;19904;-21
2022/01/29 14:01:50;;;;;;;;;;;23.30;27.80;;;;;;5075496;28;19934;-21
2022/01/29 14:04:24;;;;;;;;;;;23.50;29.50;;;;;;5075148;28;19942;-21
2022/01/29 14:07:00;;;;;;;;;;;23.60;29.40;;;;;;5075285;28;19905;-21
2022/01/29 14:09:30;;;;;;;;;;;23.50;26.90;;;;;;5075588;28;19908;-21
2022/01/29 14:11:56;;;;;;;;;;;23.60;26.80;;;;;;5075578;28;19904;-22
2022/01/29 14:14:23;;;;;;;;;;;23.50;28.70;;;;;;5074970;28;19911;-21
2022/01/29 14:16:49;;;;;;;;;;;23.40;29.00;;;;;;5075479;28;19911;-21
2022/01/29 14:19:17;;;;;;;;;;;23.30;27.30;;;;;;5075199;28;19904;-21
2022/01/29 14:21:43;;;;;;;;;;;23.20;29.40;;;;;;5075021;28;20307;-21
2022/01/29 14:24:10;;;;;;;;;;;23.10;28.30;;;;;;5074876;28;19956;-21
2022/01/29 14:26:36;;;;;;;;;;;22.90;29.00;;;;;;5074792;28;20419;-21
2022/01/29 14:29:02;;;;;;;;;;;22.70;28.60;;;;;;5074894;28;20381;-21
2022/01/29 14:31:27;;;;;;;;;;;22.60;27.60;;;;;;5075692;28;19908;-21
2022/01/29 14:33:53;;;;;;;;;;;22.50;28.00;;;;;;5074858;28;19950;-20
2022/01/29 14:36:19;;;;;;;;;;;22.40;28.50;;;;;;5074486;28;19911;-20
2022/01/29 14:38:45;;;;;;;;;;;22.40;28.40;;;;;;5075216;28;19905;-20